createdAt,value
2019-03-04T00:00:41.977Z,3.37
2019-03-04T00:03:08.696Z,3.10
2019-03-04T00:05:35.392Z,3.50
2019-03-04T00:08:02.091Z,3.43
2019-03-04T00:10:28.785Z,3.30
2019-03-04T00:12:55.882Z,3.40
2019-03-04T00:15:22.588Z,3.40
2019-03-04T00:17:49.279Z,3.47
2019-03-04T00:20:15.996Z,2.90
2019-03-04T00:22:42.709Z,3.43
2019-03-04T00:25:09.615Z,3.47
2019-03-04T00:27:36.331Z,3.23
2019-03-04T00:30:04.026Z,3.20
2019-03-04T00:32:30.723Z,3.10
2019-03-04T00:34:57.424Z,2.93
2019-03-04T00:37:24.113Z,3.20
2019-03-04T00:39:51.151Z,3.00
2019-03-04T00:42:17.856Z,3.17
2019-03-04T00:44:44.811Z,3.40
2019-03-04T00:47:11.499Z,3.17
2019-03-04T00:49:38.208Z,3.10
2019-03-04T00:52:04.999Z,3.27
2019-03-04T00:54:32.041Z,3.23
2019-03-04T00:56:58.738Z,2.70
2019-03-04T00:59:25.431Z,2.67
2019-03-04T01:01:52.229Z,2.80
2019-03-04T01:04:18.920Z,3.00
2019-03-04T01:06:45.635Z,2.87
2019-03-04T01:09:14.036Z,2.30
2019-03-04T01:11:40.731Z,2.77
2019-03-04T01:14:07.431Z,2.60
2019-03-04T01:16:34.131Z,3.07
2019-03-04T01:19:00.839Z,2.70
2019-03-04T01:21:27.535Z,2.77
2019-03-04T01:23:54.232Z,2.60
2019-03-04T01:26:20.935Z,2.60
2019-03-04T01:28:47.659Z,2.50
2019-03-04T01:31:14.363Z,2.67
2019-03-04T01:33:41.328Z,2.67
2019-03-04T01:36:08.031Z,2.60
2019-03-04T01:38:34.727Z,2.20
2019-03-04T01:41:01.450Z,2.60
2019-03-04T01:43:28.143Z,2.67
2019-03-04T01:45:54.841Z,2.40
2019-03-04T01:48:21.541Z,2.10
2019-03-04T01:50:48.354Z,2.40
2019-03-04T01:53:15.144Z,2.13
2019-03-04T01:55:41.944Z,2.03
2019-03-04T01:58:08.639Z,2.30
2019-03-04T02:00:35.548Z,2.10
2019-03-04T02:03:02.244Z,1.97
2019-03-04T02:05:29.467Z,2.20
2019-03-04T02:07:56.166Z,2.10
2019-03-04T02:10:23.088Z,2.00
2019-03-04T02:12:49.919Z,2.10
2019-03-04T02:15:17.278Z,1.93
2019-03-04T02:17:44.077Z,1.77
2019-03-04T02:20:12.388Z,2.00
2019-03-04T02:22:39.105Z,2.00
2019-03-04T02:25:07.515Z,1.90
2019-03-04T02:27:34.215Z,1.80
2019-03-04T02:30:00.912Z,1.90
2019-03-04T02:32:27.707Z,1.90
2019-03-04T02:34:54.421Z,1.70
2019-03-04T02:37:21.206Z,1.77
2019-03-04T02:39:47.900Z,1.87
2019-03-04T02:42:14.605Z,1.87
2019-03-04T02:44:41.297Z,2.10
2019-03-04T02:47:08.088Z,1.83
2019-03-04T02:49:34.797Z,1.60
2019-03-04T02:52:01.499Z,1.60
2019-03-04T02:54:28.188Z,1.50
2019-03-04T02:56:54.900Z,1.63
2019-03-04T02:59:21.614Z,1.50
2019-03-04T03:01:48.308Z,1.50
2019-03-04T03:04:14.999Z,1.47
2019-03-04T03:06:41.711Z,1.67
2019-03-04T03:09:08.428Z,1.73
2019-03-04T03:11:35.128Z,1.50
2019-03-04T03:14:02.042Z,1.73
2019-03-04T03:16:28.731Z,1.70
2019-03-04T03:18:55.445Z,2.03
2019-03-04T03:21:22.138Z,2.03
2019-03-04T03:23:48.840Z,2.13
2019-03-04T03:26:15.546Z,2.30
2019-03-04T03:28:42.342Z,2.40
2019-03-04T03:31:09.040Z,2.40
2019-03-04T03:33:35.753Z,2.50
2019-03-04T03:36:02.460Z,2.47
2019-03-04T03:38:29.164Z,2.73
2019-03-04T03:40:55.965Z,2.30
2019-03-04T03:43:22.868Z,2.40
2019-03-04T03:45:49.559Z,2.27
2019-03-04T03:48:16.267Z,2.60
2019-03-04T03:50:42.968Z,2.60
2019-03-04T03:53:09.675Z,2.30
2019-03-04T03:55:36.369Z,2.30
2019-03-04T03:58:03.158Z,2.27
2019-03-04T04:00:29.864Z,2.30
2019-03-04T04:02:57.507Z,2.00
2019-03-04T04:05:24.203Z,2.40
2019-03-04T04:07:50.924Z,2.50
2019-03-04T04:10:17.628Z,2.20
2019-03-04T04:12:44.539Z,2.40
2019-03-04T04:15:11.559Z,2.57
2019-03-04T04:17:38.462Z,2.43
2019-03-04T04:20:05.647Z,2.63
2019-03-04T04:22:32.333Z,2.10
2019-03-04T04:24:59.040Z,2.30
2019-03-04T04:27:25.736Z,2.40
2019-03-04T04:29:52.451Z,2.30
2019-03-04T04:32:19.244Z,2.10
2019-03-04T04:34:45.939Z,2.10
2019-03-04T04:37:12.647Z,1.80
2019-03-04T04:39:39.356Z,2.10
2019-03-04T04:42:06.051Z,2.00
2019-03-04T04:44:32.743Z,2.03
2019-03-04T04:47:02.551Z,1.83
2019-03-04T04:49:30.821Z,2.17
2019-03-04T04:51:57.523Z,2.00
2019-03-04T04:54:24.223Z,2.03
2019-03-04T04:56:50.930Z,2.10
2019-03-04T04:59:17.636Z,1.93
2019-03-04T05:01:44.579Z,1.93
2019-03-04T05:04:11.391Z,2.17
2019-03-04T05:06:38.299Z,2.00
2019-03-04T05:09:06.209Z,1.83
2019-03-04T05:11:32.908Z,1.80
2019-03-04T05:13:59.600Z,1.87
2019-03-04T05:16:26.287Z,1.90
2019-03-04T05:18:52.987Z,1.70
2019-03-04T05:21:19.684Z,1.90
2019-03-04T05:23:46.375Z,1.90
2019-03-04T05:26:13.075Z,1.50
2019-03-04T05:28:39.876Z,1.50
2019-03-04T05:31:06.575Z,1.27
2019-03-04T05:33:33.291Z,1.10
2019-03-04T05:35:59.987Z,1.20
2019-03-04T05:38:26.793Z,1.30
2019-03-04T05:40:53.498Z,1.10
2019-03-04T05:43:20.191Z,1.10
2019-03-04T05:45:46.891Z,1.00
2019-03-04T05:48:13.583Z,0.90
2019-03-04T05:50:40.295Z,1.00
2019-03-04T05:53:07.013Z,0.90
2019-03-04T05:55:33.719Z,0.90
2019-03-04T05:58:00.416Z,0.90
2019-03-04T06:00:28.491Z,0.70
2019-03-04T06:02:55.255Z,1.00
2019-03-04T06:05:21.935Z,0.70
2019-03-04T06:07:52.105Z,0.97
2019-03-04T06:10:19.007Z,0.90
2019-03-04T06:12:45.711Z,1.20
2019-03-04T06:15:14.307Z,0.90
2019-03-04T06:17:41.010Z,0.80
2019-03-04T06:20:09.031Z,1.00
2019-03-04T06:22:35.819Z,1.03
2019-03-04T06:25:03.320Z,0.87
2019-03-04T06:27:30.027Z,0.93
2019-03-04T06:29:56.716Z,0.90
2019-03-04T06:32:23.411Z,1.33
2019-03-04T06:34:50.116Z,1.00
2019-03-04T06:37:16.820Z,1.00
2019-03-04T06:39:43.515Z,1.10
2019-03-04T06:42:10.600Z,1.00
2019-03-04T06:44:37.297Z,1.57
2019-03-04T06:47:04.195Z,1.00
2019-03-04T06:49:30.910Z,1.20
2019-03-04T06:51:57.612Z,1.30
2019-03-04T06:55:14.300Z,1.10
2019-03-04T06:57:44.673Z,1.23
2019-03-04T07:00:31.928Z,0.90
2019-03-04T07:02:59.912Z,0.90
2019-03-04T07:05:44.215Z,1.00
2019-03-04T07:08:47.723Z,0.97
2019-03-04T07:11:14.427Z,1.00
2019-03-04T07:13:41.230Z,0.90
2019-03-04T07:16:07.935Z,1.10
2019-03-04T07:18:35.643Z,1.17
2019-03-04T07:21:02.449Z,1.10
2019-03-04T07:23:29.159Z,1.20
2019-03-04T07:25:55.848Z,1.30
2019-03-04T07:28:22.555Z,1.27
2019-03-04T07:30:49.266Z,1.73
2019-03-04T07:33:16.215Z,1.77
2019-03-04T07:35:42.930Z,1.33
2019-03-04T07:38:39.748Z,1.50
2019-03-04T07:41:06.448Z,1.70
2019-03-04T07:43:33.155Z,1.40
2019-03-04T07:46:00.260Z,1.93
2019-03-04T07:48:26.955Z,1.47
2019-03-04T07:50:53.663Z,1.60
2019-03-04T07:53:20.376Z,1.47
2019-03-04T07:55:47.075Z,1.43
2019-03-04T07:58:13.886Z,1.40
2019-03-04T08:00:40.692Z,1.60
2019-03-04T08:03:07.402Z,1.27
2019-03-04T08:05:34.202Z,1.50
2019-03-04T08:08:01.210Z,1.50
2019-03-04T08:10:53.052Z,1.60
2019-03-04T08:13:35.903Z,1.30
2019-03-04T08:16:03.121Z,1.87
2019-03-04T08:18:29.815Z,1.93
2019-03-04T08:20:56.520Z,2.00
2019-03-04T08:23:23.232Z,1.50
2019-03-04T08:25:50.031Z,1.60
2019-03-04T08:28:16.739Z,2.10
2019-03-04T08:30:43.647Z,2.40
2019-03-04T08:33:10.557Z,1.80
2019-03-04T08:35:37.363Z,2.00
2019-03-04T08:38:04.263Z,1.90
2019-03-04T08:40:31.059Z,1.90
2019-03-04T08:42:57.866Z,2.67
2019-03-04T08:45:24.786Z,2.10
2019-03-04T08:47:51.687Z,2.17
2019-03-04T08:50:18.399Z,2.13
2019-03-04T08:52:45.111Z,1.90
2019-03-04T08:55:13.397Z,1.90
2019-03-04T08:57:40.300Z,1.90
2019-03-04T09:00:10.971Z,2.00
2019-03-04T09:02:37.895Z,2.30
2019-03-04T09:05:05.049Z,2.00
2019-03-04T09:07:31.747Z,2.17
2019-03-04T09:09:58.463Z,1.97
2019-03-04T09:12:25.263Z,2.17
2019-03-04T09:14:51.967Z,2.63
2019-03-04T09:17:18.672Z,2.10
2019-03-04T09:19:45.476Z,2.60
2019-03-04T09:22:14.091Z,2.57
2019-03-04T09:24:40.804Z,2.90
2019-03-04T09:27:07.612Z,2.77
2019-03-04T09:29:34.311Z,2.50
2019-03-04T09:32:01.031Z,2.63
2019-03-04T09:34:27.728Z,2.57
2019-03-04T09:36:54.579Z,2.67
2019-03-04T09:39:21.259Z,2.50
2019-03-04T09:41:49.185Z,2.50
2019-03-04T09:44:16.223Z,1.90
2019-03-04T09:46:43.059Z,1.93
2019-03-04T09:49:09.747Z,2.00
2019-03-04T09:51:36.557Z,1.33
2019-03-04T09:54:03.361Z,1.43
2019-03-04T09:56:30.067Z,1.30
2019-03-04T09:58:56.768Z,1.20
2019-03-04T10:01:31.036Z,1.40
2019-03-04T10:04:05.552Z,1.30
2019-03-04T10:06:43.864Z,1.23
2019-03-04T10:09:50.179Z,1.43
2019-03-04T10:12:45.556Z,1.20
2019-03-04T10:15:57.489Z,1.00
2019-03-04T10:18:32.487Z,1.10
2019-03-04T10:21:16.844Z,1.03
2019-03-04T10:24:17.159Z,1.50
2019-03-04T10:27:31.966Z,1.37
2019-03-04T10:30:43.500Z,0.97
2019-03-04T10:33:32.984Z,1.00
2019-03-04T10:36:14.815Z,1.00
2019-03-04T10:39:22.658Z,1.00
2019-03-04T10:42:37.763Z,1.03
2019-03-04T10:45:26.523Z,0.90
2019-03-04T10:47:53.232Z,1.00
2019-03-04T10:50:19.983Z,0.90
2019-03-04T10:52:46.765Z,1.10
2019-03-04T10:55:13.626Z,0.90
2019-03-04T10:57:40.392Z,1.10
2019-03-04T11:00:13.864Z,1.00
2019-03-04T11:02:40.578Z,1.23
2019-03-04T11:05:07.404Z,1.17
2019-03-04T11:07:34.124Z,1.10
2019-03-04T11:10:00.940Z,1.65
2019-03-04T11:12:27.665Z,1.50
2019-03-04T11:14:54.748Z,1.70
2019-03-04T11:17:21.452Z,1.80
2019-03-04T11:19:48.167Z,2.10
2019-03-04T11:22:15.088Z,2.20
2019-03-04T11:24:42.096Z,2.50
2019-03-04T11:27:09.007Z,3.00
2019-03-04T11:29:35.819Z,2.90
2019-03-04T11:32:02.935Z,2.93
2019-03-04T11:34:29.635Z,3.40
2019-03-04T11:36:56.439Z,3.33
2019-03-04T11:39:56.575Z,2.80
2019-03-04T11:42:23.285Z,3.20
2019-03-04T11:44:50.451Z,2.60
2019-03-04T11:47:20.931Z,2.90
2019-03-04T11:49:47.681Z,3.10
2019-03-04T11:52:14.383Z,3.17
2019-03-04T11:54:41.208Z,2.83
2019-03-04T11:57:07.903Z,3.00
2019-03-04T11:59:34.619Z,3.30
2019-03-04T12:02:01.441Z,3.10
2019-03-04T12:04:28.147Z,3.40
2019-03-04T12:06:54.868Z,3.30
2019-03-04T12:09:21.595Z,3.20
2019-03-04T12:11:48.643Z,3.60
2019-03-04T12:14:15.353Z,3.83
2019-03-04T12:16:42.155Z,3.20
2019-03-04T12:19:08.875Z,3.10
2019-03-04T12:21:35.787Z,2.90
2019-03-04T12:24:02.692Z,3.30
2019-03-04T12:26:29.503Z,2.73
2019-03-04T12:28:56.209Z,2.33
2019-03-04T12:31:25.148Z,2.80
2019-03-04T12:33:51.863Z,2.50
2019-03-04T12:36:18.568Z,2.27
2019-03-04T12:38:45.285Z,2.57
2019-03-04T12:41:12.483Z,2.60
2019-03-04T12:43:39.296Z,2.40
2019-03-04T12:46:05.991Z,2.07
2019-03-04T12:48:32.707Z,2.10
2019-03-04T12:50:59.715Z,2.30
2019-03-04T12:53:36.830Z,2.73
2019-03-04T12:55:55.567Z,2.30
2019-03-04T12:58:22.275Z,2.03
2019-03-04T13:00:49.088Z,2.30
2019-03-04T13:03:18.577Z,1.90
2019-03-04T13:05:45.291Z,1.97
2019-03-04T13:08:11.991Z,2.50
2019-03-04T13:10:38.964Z,2.00
2019-03-04T13:13:05.955Z,2.27
2019-03-04T13:15:32.809Z,2.23
2019-03-04T13:17:59.892Z,2.47
2019-03-04T13:20:26.624Z,2.00
2019-03-04T13:22:53.715Z,2.00
2019-03-04T13:25:21.040Z,2.13
2019-03-04T13:27:47.746Z,2.03
2019-03-04T13:30:19.196Z,1.67
2019-03-04T13:32:46.110Z,1.67
2019-03-04T13:35:24.124Z,1.80
2019-03-04T13:37:43.547Z,1.90
2019-03-04T13:40:11.100Z,1.70
2019-03-04T13:42:37.804Z,2.50
2019-03-04T13:45:06.177Z,2.20
2019-03-04T13:47:32.883Z,1.70
2019-03-04T13:49:59.692Z,1.60
2019-03-04T13:52:26.513Z,1.77
2019-03-04T13:54:53.216Z,1.70
2019-03-04T13:57:19.935Z,1.93
2019-03-04T13:59:46.825Z,1.60
2019-03-04T14:02:13.618Z,1.90
2019-03-04T14:04:40.330Z,1.47
2019-03-04T14:07:07.147Z,2.27
2019-03-04T14:09:33.844Z,1.50
2019-03-04T14:12:00.571Z,1.63
2019-03-04T14:14:27.367Z,1.70
2019-03-04T14:16:54.175Z,1.20
2019-03-04T14:19:20.890Z,1.70
2019-03-04T14:21:47.615Z,1.60
2019-03-04T14:24:14.321Z,1.50
2019-03-04T14:26:41.141Z,1.73
2019-03-04T14:29:07.827Z,1.63
2019-03-04T14:31:34.551Z,1.80
2019-03-04T14:34:01.272Z,1.40
2019-03-04T14:36:27.991Z,1.60
2019-03-04T14:38:54.696Z,1.40
2019-03-04T14:41:21.413Z,1.70
2019-03-04T14:43:48.403Z,1.60
2019-03-04T14:46:21.175Z,1.67
2019-03-04T14:48:47.903Z,2.00
2019-03-04T14:51:14.624Z,1.60
2019-03-04T14:53:41.329Z,1.60
2019-03-04T14:56:08.033Z,1.80
2019-03-04T14:58:34.731Z,1.53
2019-03-04T15:01:01.532Z,1.40
2019-03-04T15:03:28.227Z,1.60
2019-03-04T15:05:54.938Z,1.60
2019-03-04T15:08:21.741Z,1.50
2019-03-04T15:10:48.463Z,1.77
2019-03-04T15:13:15.151Z,2.10
2019-03-04T15:15:41.859Z,2.03
2019-03-04T15:18:08.670Z,1.80
2019-03-04T15:20:35.992Z,1.87
2019-03-04T15:23:02.917Z,2.00
2019-03-04T15:25:30.476Z,1.90
2019-03-04T15:28:08.525Z,2.07
2019-03-04T15:30:35.511Z,2.30
2019-03-04T15:33:02.233Z,2.20
2019-03-04T15:35:28.939Z,2.10
2019-03-04T15:37:55.639Z,2.23
2019-03-04T15:40:22.365Z,2.50
2019-03-04T15:42:49.071Z,2.40
2019-03-04T15:45:15.775Z,2.50
2019-03-04T15:47:42.619Z,2.43
2019-03-04T15:50:09.560Z,2.13
2019-03-04T15:52:36.363Z,2.40
2019-03-04T15:55:03.334Z,2.30
2019-03-04T15:57:30.043Z,2.30
2019-03-04T15:59:56.764Z,2.10
2019-03-04T16:02:23.974Z,2.27
2019-03-04T16:04:50.773Z,1.90
2019-03-04T16:07:17.683Z,2.10
2019-03-04T16:09:44.500Z,2.20
2019-03-04T16:12:13.543Z,2.00
2019-03-04T16:14:40.363Z,2.13
2019-03-04T16:17:07.667Z,2.43
2019-03-04T16:19:34.363Z,2.07
2019-03-04T16:22:01.225Z,1.77
2019-03-04T16:24:27.997Z,2.00
2019-03-04T16:26:54.712Z,2.13
2019-03-04T16:29:21.563Z,1.80
2019-03-04T16:31:48.369Z,1.60
2019-03-04T16:34:15.131Z,1.73
2019-03-04T16:36:42.220Z,2.00
2019-03-04T16:39:09.122Z,2.07
2019-03-04T16:41:35.819Z,1.80
2019-03-04T16:44:03.023Z,2.23
2019-03-04T16:46:30.017Z,2.37
2019-03-04T16:48:56.723Z,1.60
2019-03-04T16:51:23.530Z,1.73
2019-03-04T16:53:50.468Z,1.63
2019-03-04T16:56:17.181Z,1.60
2019-03-04T16:58:43.905Z,1.50
2019-03-04T17:01:10.696Z,1.50
2019-03-04T17:03:37.407Z,1.50
2019-03-04T17:06:04.518Z,1.30
2019-03-04T17:08:31.212Z,1.83
2019-03-04T17:10:58.028Z,1.27
2019-03-04T17:13:24.819Z,1.50
2019-03-04T17:15:51.531Z,1.40
2019-03-04T17:18:18.544Z,1.70
2019-03-04T17:20:45.362Z,1.50
2019-03-04T17:23:12.191Z,1.60
2019-03-04T17:25:39.203Z,1.67
2019-03-04T17:28:06.254Z,1.60
2019-03-04T17:30:33.119Z,1.30
2019-03-04T17:33:00.436Z,1.40
2019-03-04T17:35:27.159Z,1.70
2019-03-04T17:37:53.963Z,1.73
2019-03-04T17:40:20.903Z,1.73
2019-03-04T17:42:47.710Z,1.80
2019-03-04T17:45:16.283Z,1.83
2019-03-04T17:47:43.094Z,1.90
2019-03-04T17:50:11.839Z,1.97
2019-03-04T17:52:38.662Z,1.70
2019-03-04T17:55:06.955Z,1.63
2019-03-04T17:57:33.754Z,1.93
2019-03-04T18:00:00.459Z,2.10
2019-03-04T18:02:27.372Z,2.03
2019-03-04T18:04:54.064Z,2.00
2019-03-04T18:07:20.775Z,2.37
2019-03-04T18:09:47.475Z,2.20
2019-03-04T18:12:14.192Z,2.17
2019-03-04T18:14:40.907Z,2.30
2019-03-04T18:17:07.615Z,2.60
2019-03-04T18:19:34.327Z,2.50
2019-03-04T18:22:01.143Z,2.50
2019-03-04T18:24:28.220Z,2.40
2019-03-04T18:27:28.637Z,3.08
2019-03-04T18:30:38.093Z,2.70
2019-03-04T18:33:28.739Z,2.60
2019-03-04T18:36:18.135Z,2.40
2019-03-04T18:39:26.323Z,2.37
2019-03-04T18:42:30.391Z,2.60
2019-03-04T18:45:27.991Z,2.50
2019-03-04T18:48:39.534Z,2.50
2019-03-04T18:51:06.235Z,2.50
2019-03-04T18:53:32.952Z,2.47
2019-03-04T18:55:59.664Z,2.60
2019-03-04T18:58:26.480Z,2.73
2019-03-04T19:00:53.207Z,2.60
2019-03-04T19:03:19.907Z,2.90
2019-03-04T19:05:46.631Z,2.33
2019-03-04T19:08:13.352Z,2.87
2019-03-04T19:10:40.249Z,2.70
2019-03-04T19:13:06.963Z,2.47
2019-03-04T19:15:34.095Z,2.70
2019-03-04T19:18:00.821Z,2.50
2019-03-04T19:20:27.531Z,2.97
2019-03-04T19:22:54.235Z,2.93
2019-03-04T19:25:21.476Z,3.03
2019-03-04T19:28:07.824Z,2.80
2019-03-04T19:30:34.521Z,2.73
2019-03-04T19:33:01.660Z,2.70
2019-03-04T19:35:28.460Z,2.80
2019-03-04T19:37:55.167Z,2.30
2019-03-04T19:40:21.883Z,2.70
2019-03-04T19:42:48.571Z,3.20
2019-03-04T19:45:15.776Z,2.30
2019-03-04T19:47:42.683Z,1.80
2019-03-04T19:50:09.601Z,2.40
2019-03-04T19:52:36.603Z,1.70
2019-03-04T19:55:05.329Z,1.83
2019-03-04T19:57:32.031Z,2.20
2019-03-04T19:59:58.819Z,1.60
2019-03-04T20:02:25.516Z,2.03
2019-03-04T20:04:52.307Z,2.30
2019-03-04T20:07:19.042Z,1.93
2019-03-04T20:09:46.348Z,1.97
2019-03-04T20:12:13.038Z,1.90
2019-03-04T20:14:40.239Z,1.83
2019-03-04T20:17:07.515Z,1.50
2019-03-04T20:19:34.217Z,1.80
2019-03-04T20:22:00.907Z,1.60
2019-03-04T20:24:28.016Z,2.07
2019-03-04T20:26:55.263Z,1.80
2019-03-04T20:29:21.959Z,1.70
2019-03-04T20:31:48.902Z,1.97
2019-03-04T20:34:15.683Z,1.63
2019-03-04T20:36:42.479Z,2.10
2019-03-04T20:39:13.935Z,2.00
2019-03-04T20:41:40.635Z,1.83
2019-03-04T20:44:07.343Z,2.00
2019-03-04T20:46:34.131Z,1.90
2019-03-04T20:49:00.847Z,2.00
2019-03-04T20:51:27.539Z,2.37
2019-03-04T20:53:54.251Z,1.97
2019-03-04T20:56:20.946Z,2.50
2019-03-04T20:58:47.747Z,1.93
2019-03-04T21:01:15.255Z,2.47
2019-03-04T21:03:42.051Z,2.43
2019-03-04T21:06:09.051Z,2.50
2019-03-04T21:08:35.848Z,2.60
2019-03-04T21:11:02.958Z,2.63
2019-03-04T21:13:35.738Z,2.70
2019-03-04T21:15:58.652Z,2.80
2019-03-04T21:18:25.558Z,2.33
2019-03-04T21:20:53.292Z,2.40
2019-03-04T21:23:20.087Z,2.63
2019-03-04T21:25:59.083Z,3.00
2019-03-04T21:29:04.695Z,2.70
2019-03-04T21:32:06.512Z,3.37
2019-03-04T21:35:33.679Z,3.03
2019-03-04T21:38:00.632Z,2.70
2019-03-04T21:40:35.975Z,3.20
2019-03-04T21:43:10.059Z,2.77
2019-03-04T21:46:12.952Z,2.40
2019-03-04T21:48:43.896Z,2.50
2019-03-04T21:51:23.740Z,2.97
2019-03-04T21:53:50.952Z,2.57
2019-03-04T21:56:40.264Z,2.50
2019-03-04T21:59:07.287Z,2.97
2019-03-04T22:01:38.661Z,2.60
2019-03-04T22:04:05.367Z,2.67
2019-03-04T22:06:32.175Z,2.40
2019-03-04T22:08:58.877Z,2.90
2019-03-04T22:11:25.787Z,2.57
2019-03-04T22:13:52.487Z,2.80
2019-03-04T22:16:19.187Z,2.70
2019-03-04T22:18:46.001Z,3.23
2019-03-04T22:21:16.679Z,3.00
2019-03-04T22:23:41.317Z,3.10
2019-03-04T22:26:08.017Z,2.80
2019-03-04T22:28:34.830Z,2.73
2019-03-04T22:31:01.876Z,2.87
2019-03-04T22:33:28.767Z,2.60
2019-03-04T22:35:55.560Z,2.83
2019-03-04T22:38:22.259Z,3.70
2019-03-04T22:40:48.990Z,2.87
2019-03-04T22:43:15.699Z,2.90
2019-03-04T22:45:42.612Z,3.30
2019-03-04T22:48:09.309Z,3.30
2019-03-04T22:50:36.046Z,3.23
2019-03-04T22:53:03.305Z,2.80
2019-03-04T22:55:32.779Z,2.93
2019-03-04T22:57:59.535Z,2.63
2019-03-04T23:01:25.127Z,2.87
2019-03-04T23:03:54.843Z,2.97
2019-03-04T23:06:24.044Z,2.80
2019-03-04T23:08:50.864Z,3.03
2019-03-04T23:11:19.673Z,3.10
2019-03-04T23:14:10.080Z,3.10
2019-03-04T23:16:36.917Z,2.93
2019-03-04T23:19:03.818Z,3.10
2019-03-04T23:21:30.527Z,3.37
2019-03-04T23:23:57.469Z,2.97
2019-03-04T23:26:24.163Z,3.13
2019-03-04T23:28:50.867Z,2.67
2019-03-04T23:31:17.580Z,2.70
2019-03-04T23:33:44.287Z,2.90
2019-03-04T23:36:10.976Z,3.13
2019-03-04T23:38:37.683Z,2.90
2019-03-04T23:41:04.372Z,3.00
2019-03-04T23:43:31.780Z,3.57
2019-03-04T23:45:58.477Z,3.03
2019-03-04T23:48:25.175Z,3.63
2019-03-04T23:50:52.632Z,2.83
2019-03-04T23:53:19.607Z,3.70
2019-03-04T23:55:46.324Z,2.90
2019-03-04T23:58:13.018Z,2.90
